createdAt,value
2022-10-18T00:00:48.940Z,100.00
2022-10-18T00:03:15.774Z,100.00
2022-10-18T00:05:42.524Z,100.00
2022-10-18T00:08:09.390Z,100.00
2022-10-18T00:10:36.313Z,100.00
2022-10-18T00:13:03.232Z,100.00
2022-10-18T00:15:30.045Z,100.00
2022-10-18T00:17:56.861Z,100.00
2022-10-18T00:20:24.859Z,100.00
2022-10-18T00:22:51.664Z,100.00
2022-10-18T00:25:19.034Z,100.00
2022-10-18T00:27:45.796Z,100.00
2022-10-18T00:30:13.481Z,100.00
2022-10-18T00:32:42.286Z,100.00
2022-10-18T00:35:09.735Z,100.00
2022-10-18T00:37:36.831Z,100.00
2022-10-18T00:40:05.243Z,100.00
2022-10-18T00:42:36.217Z,100.00
2022-10-18T00:45:24.390Z,100.00
2022-10-18T00:47:58.230Z,100.00
2022-10-18T00:50:28.431Z,100.00
2022-10-18T00:53:00.784Z,100.00
2022-10-18T00:55:29.065Z,100.00
2022-10-18T00:57:57.232Z,100.00
2022-10-18T01:00:24.380Z,100.00
2022-10-18T01:02:51.128Z,100.00
2022-10-18T01:05:19.982Z,100.00
2022-10-18T01:07:58.425Z,100.00
2022-10-18T01:10:46.977Z,100.00
2022-10-18T01:13:36.336Z,100.00
2022-10-18T01:16:20.330Z,100.00
2022-10-18T01:19:02.463Z,100.00
2022-10-18T01:22:01.798Z,100.00
2022-10-18T01:24:48.857Z,100.00
2022-10-18T01:27:18.671Z,100.00
2022-10-18T01:30:12.289Z,100.00
2022-10-18T01:32:49.194Z,100.00
2022-10-18T01:35:25.352Z,100.00
2022-10-18T01:37:58.561Z,100.00
2022-10-18T01:40:26.979Z,100.00
2022-10-18T01:42:54.192Z,100.00
2022-10-18T01:45:24.105Z,100.00
2022-10-18T01:47:54.366Z,100.00
2022-10-18T01:50:34.828Z,100.00
2022-10-18T01:53:02.556Z,100.00
2022-10-18T01:55:44.028Z,100.00
2022-10-18T01:58:30.973Z,100.00
2022-10-18T02:01:28.366Z,100.00
2022-10-18T02:04:06.834Z,100.00
2022-10-18T02:06:44.922Z,100.00
2022-10-18T02:09:22.750Z,100.00
2022-10-18T02:11:55.054Z,100.00
2022-10-18T02:14:26.001Z,100.00
2022-10-18T02:16:59.965Z,100.00
2022-10-18T02:19:55.858Z,100.00
2022-10-18T02:22:28.154Z,100.00
2022-10-18T02:24:59.911Z,100.00
2022-10-18T02:27:26.833Z,100.00
2022-10-18T02:29:54.247Z,100.00
2022-10-18T02:33:31.797Z,100.00
2022-10-18T02:36:11.498Z,100.00
2022-10-18T02:38:42.083Z,100.00
2022-10-18T02:41:08.889Z,100.00
2022-10-18T02:43:35.658Z,100.00
2022-10-18T02:46:03.748Z,100.00
2022-10-18T02:48:30.560Z,100.00
2022-10-18T02:50:57.294Z,100.00
2022-10-18T02:53:24.006Z,100.00
2022-10-18T02:55:50.740Z,100.00
2022-10-18T02:58:17.498Z,100.00
2022-10-18T03:00:44.235Z,100.00
2022-10-18T03:03:10.953Z,100.00
2022-10-18T03:05:37.675Z,100.00
2022-10-18T03:08:04.770Z,100.00
2022-10-18T03:10:31.597Z,100.00
2022-10-18T03:12:58.368Z,100.00
2022-10-18T03:15:25.196Z,100.00
2022-10-18T03:17:52.158Z,100.00
2022-10-18T03:20:19.775Z,100.00
2022-10-18T03:22:46.588Z,100.00
2022-10-18T03:25:13.338Z,100.00
2022-10-18T03:27:40.084Z,100.00
2022-10-18T03:30:08.579Z,100.00
2022-10-18T03:32:35.496Z,100.00
2022-10-18T03:35:02.651Z,100.00
2022-10-18T03:37:29.509Z,100.00
2022-10-18T03:39:56.209Z,100.00
2022-10-18T03:42:23.190Z,100.00
2022-10-18T03:44:49.986Z,100.00
2022-10-18T03:47:16.933Z,100.00
2022-10-18T03:49:43.729Z,100.00
2022-10-18T03:52:10.496Z,100.00
2022-10-18T03:54:37.230Z,100.00
2022-10-18T03:57:04.082Z,100.00
2022-10-18T03:59:30.779Z,100.00
2022-10-18T04:01:57.554Z,100.00
2022-10-18T04:04:24.391Z,100.00
2022-10-18T04:06:51.134Z,100.00
2022-10-18T04:09:18.092Z,100.00
2022-10-18T04:11:44.789Z,100.00
2022-10-18T04:14:11.750Z,100.00
2022-10-18T04:16:38.506Z,100.00
2022-10-18T04:19:05.253Z,100.00
2022-10-18T04:21:31.952Z,100.00
2022-10-18T04:23:58.770Z,100.00
2022-10-18T04:26:25.760Z,100.00
2022-10-18T04:28:52.628Z,100.00
2022-10-18T04:31:19.441Z,100.00
2022-10-18T04:33:46.191Z,100.00
2022-10-18T04:36:13.035Z,100.00
2022-10-18T04:38:40.121Z,100.00
2022-10-18T04:41:06.959Z,100.00
2022-10-18T04:43:33.749Z,100.00
2022-10-18T04:46:00.681Z,100.00
2022-10-18T04:48:27.508Z,100.00
2022-10-18T04:50:54.350Z,100.00
2022-10-18T04:53:21.127Z,100.00
2022-10-18T04:55:50.209Z,100.00
2022-10-18T04:58:18.502Z,100.00
2022-10-18T05:00:45.961Z,100.00
2022-10-18T05:03:14.463Z,100.00
2022-10-18T05:06:00.959Z,100.00
2022-10-18T05:08:29.240Z,100.00
2022-10-18T05:10:56.077Z,100.00
2022-10-18T05:13:22.991Z,100.00
2022-10-18T05:15:49.816Z,100.00
2022-10-18T05:18:16.625Z,100.00
2022-10-18T05:20:43.513Z,100.00
2022-10-18T05:23:10.905Z,100.00
2022-10-18T05:25:42.578Z,100.00
2022-10-18T05:28:21.115Z,100.00
2022-10-18T05:31:05.856Z,100.00
2022-10-18T05:33:34.010Z,100.00
2022-10-18T05:36:01.079Z,100.00
2022-10-18T05:38:30.917Z,100.00
2022-10-18T05:40:59.545Z,100.00
2022-10-18T05:43:30.065Z,100.00
2022-10-18T05:45:57.030Z,100.00
2022-10-18T05:48:23.864Z,100.00
2022-10-18T05:50:50.909Z,100.00
2022-10-18T05:53:35.879Z,100.00
2022-10-18T05:56:04.686Z,100.00
2022-10-18T05:58:31.456Z,100.00
2022-10-18T06:01:03.011Z,100.00
2022-10-18T06:03:30.925Z,100.00
2022-10-18T06:06:11.107Z,100.00
2022-10-18T06:08:40.359Z,100.00
2022-10-18T06:11:14.721Z,100.00
2022-10-18T06:13:44.202Z,100.00
2022-10-18T06:16:13.811Z,100.00
2022-10-18T06:18:41.918Z,100.00
2022-10-18T06:21:09.893Z,100.00
2022-10-18T06:23:36.753Z,100.00
2022-10-18T06:26:09.698Z,100.00
2022-10-18T06:28:38.049Z,100.00
2022-10-18T06:31:06.544Z,100.00
2022-10-18T06:33:35.597Z,100.00
2022-10-18T06:36:14.284Z,100.00
2022-10-18T06:38:41.596Z,100.00
2022-10-18T06:41:09.020Z,100.00
2022-10-18T06:43:35.806Z,100.00
2022-10-18T06:46:06.748Z,100.00
2022-10-18T06:48:38.535Z,100.00
2022-10-18T06:51:07.549Z,100.00
2022-10-18T06:53:44.192Z,100.00
2022-10-18T06:56:20.310Z,100.00
2022-10-18T06:58:47.100Z,100.00
2022-10-18T07:01:16.913Z,100.00
2022-10-18T07:03:46.388Z,100.00
2022-10-18T07:06:16.348Z,100.00
2022-10-18T07:08:44.129Z,100.00
2022-10-18T07:11:25.074Z,100.00
2022-10-18T07:13:54.510Z,100.00
2022-10-18T07:16:21.602Z,100.00
2022-10-18T07:18:51.484Z,100.00
2022-10-18T07:21:22.427Z,100.00
2022-10-18T07:23:50.667Z,100.00
2022-10-18T07:26:29.109Z,100.00
2022-10-18T07:29:08.606Z,100.00
2022-10-18T07:31:36.283Z,100.00
2022-10-18T07:34:08.434Z,100.00
2022-10-18T07:36:35.428Z,100.00
2022-10-18T07:39:02.698Z,100.00
2022-10-18T07:41:30.103Z,100.00
2022-10-18T07:43:56.813Z,100.00
2022-10-18T07:46:23.599Z,100.00
2022-10-18T07:48:51.651Z,100.00
2022-10-18T07:51:20.597Z,100.00
2022-10-18T07:53:48.026Z,100.00
2022-10-18T07:56:21.365Z,100.00
2022-10-18T07:58:52.626Z,100.00
2022-10-18T08:01:22.313Z,100.00
2022-10-18T08:03:49.998Z,100.00
2022-10-18T08:06:19.768Z,100.00
2022-10-18T08:08:47.191Z,100.00
2022-10-18T08:11:17.348Z,100.00
2022-10-18T08:13:44.782Z,100.00
2022-10-18T08:16:16.229Z,100.00
2022-10-18T08:18:43.264Z,100.00
2022-10-18T08:21:13.211Z,100.00
2022-10-18T08:23:40.294Z,100.00
2022-10-18T08:26:17.624Z,100.00
2022-10-18T08:28:53.670Z,100.00
2022-10-18T08:31:30.682Z,100.00
2022-10-18T08:33:57.702Z,100.00
2022-10-18T08:36:25.050Z,100.00
2022-10-18T08:38:52.173Z,100.00
2022-10-18T08:42:14.189Z,100.00
2022-10-18T08:44:52.381Z,100.00
2022-10-18T08:47:36.518Z,100.00
2022-10-18T08:50:20.605Z,100.00
2022-10-18T08:53:40.413Z,100.00
2022-10-18T08:56:14.918Z,100.00
2022-10-18T08:58:44.786Z,100.00
2022-10-18T09:01:44.795Z,100.00
2022-10-18T09:04:49.365Z,100.00
2022-10-18T09:07:40.653Z,100.00
2022-10-18T09:10:45.753Z,100.00
2022-10-18T09:14:32.891Z,100.00
2022-10-18T09:17:43.338Z,100.00
2022-10-18T09:20:31.952Z,100.00
2022-10-18T09:23:21.098Z,100.00
2022-10-18T09:25:56.075Z,100.00
2022-10-18T09:28:49.865Z,100.00
2022-10-18T09:31:37.108Z,100.00
2022-10-18T09:34:26.728Z,100.00
2022-10-18T09:36:54.753Z,100.00
2022-10-18T09:39:37.858Z,100.00
2022-10-18T09:42:17.843Z,100.00
2022-10-18T09:44:53.604Z,100.00
2022-10-18T09:47:38.028Z,100.00
2022-10-18T09:50:48.917Z,100.00
2022-10-18T09:53:26.812Z,100.00
2022-10-18T09:56:10.165Z,100.00
2022-10-18T09:58:46.424Z,100.00
2022-10-18T10:01:22.712Z,100.00
2022-10-18T10:03:49.476Z,100.00
2022-10-18T10:06:26.885Z,100.00
2022-10-18T10:09:15.953Z,100.00
2022-10-18T10:11:49.565Z,100.00
2022-10-18T10:14:30.345Z,100.00
2022-10-18T10:17:06.999Z,100.00
2022-10-18T10:20:05.260Z,100.00
2022-10-18T10:22:39.036Z,100.00
2022-10-18T10:25:08.050Z,100.00
2022-10-18T10:27:44.175Z,100.00
2022-10-18T10:30:27.369Z,100.00
2022-10-18T10:32:56.052Z,100.00
2022-10-18T10:35:53.380Z,100.00
2022-10-18T10:38:29.962Z,100.00
2022-10-18T10:40:57.761Z,100.00
2022-10-18T10:43:39.188Z,100.00
2022-10-18T10:46:19.360Z,100.00
2022-10-18T10:49:00.366Z,100.00
2022-10-18T10:51:40.185Z,100.00
2022-10-18T10:54:17.652Z,100.00
2022-10-18T10:57:21.854Z,100.00
2022-10-18T11:00:02.068Z,100.00
2022-10-18T11:02:36.798Z,100.00
2022-10-18T11:05:25.172Z,100.00
2022-10-18T11:08:02.311Z,100.00
2022-10-18T11:10:39.918Z,100.00
2022-10-18T11:13:43.184Z,100.00
2022-10-18T11:16:24.722Z,100.00
2022-10-18T11:18:56.916Z,100.00
2022-10-18T11:21:32.381Z,100.00
2022-10-18T11:24:03.116Z,100.00
2022-10-18T11:26:58.423Z,93.78
2022-10-18T11:29:40.938Z,89.97
2022-10-18T11:32:34.128Z,93.04
2022-10-18T11:35:34.669Z,93.83
2022-10-18T11:38:31.344Z,95.20
2022-10-18T11:41:40.060Z,93.76
2022-10-18T11:44:57.198Z,96.59
2022-10-18T11:48:16.667Z,85.98
2022-10-18T11:51:13.814Z,86.92
2022-10-18T11:54:22.711Z,92.77
2022-10-18T11:57:26.045Z,94.21
2022-10-18T12:00:23.656Z,91.54
2022-10-18T12:03:25.756Z,84.87
2022-10-18T12:05:57.156Z,86.30
2022-10-18T12:08:45.965Z,91.82
2022-10-18T12:11:33.758Z,90.15
2022-10-18T12:14:21.422Z,89.79
2022-10-18T12:16:53.602Z,83.96
2022-10-18T12:19:33.426Z,86.38
2022-10-18T12:22:27.106Z,88.72
2022-10-18T12:24:54.176Z,77.71
2022-10-18T12:27:39.551Z,73.58
2022-10-18T12:30:42.265Z,81.80
2022-10-18T12:33:28.191Z,84.85
2022-10-18T12:36:22.285Z,74.79
2022-10-18T12:39:03.077Z,78.29
2022-10-18T12:41:36.100Z,80.37
2022-10-18T12:44:19.639Z,82.24
2022-10-18T12:46:55.018Z,85.06
2022-10-18T12:49:29.705Z,78.02
2022-10-18T12:52:21.414Z,74.69
2022-10-18T12:55:26.227Z,71.40
2022-10-18T12:57:52.866Z,71.21
2022-10-18T13:00:31.512Z,73.24
2022-10-18T13:03:10.226Z,74.41
2022-10-18T13:05:54.465Z,76.73
2022-10-18T13:08:27.480Z,73.65
2022-10-18T13:11:12.237Z,71.60
2022-10-18T13:13:57.333Z,70.86
2022-10-18T13:16:38.682Z,69.69
2022-10-18T13:20:02.961Z,74.11
2022-10-18T13:23:05.083Z,74.67
2022-10-18T13:26:04.948Z,75.95
2022-10-18T13:29:04.795Z,76.68
2022-10-18T13:32:48.069Z,69.74
2022-10-18T13:36:23.042Z,72.68
2022-10-18T13:38:50.490Z,65.28
2022-10-18T13:44:03.364Z,68.66
2022-10-18T13:46:33.067Z,63.87
2022-10-18T13:49:05.608Z,66.82
2022-10-18T13:51:46.512Z,62.63
2022-10-18T13:54:56.423Z,60.07
2022-10-18T13:57:41.005Z,60.87
2022-10-18T14:00:32.446Z,62.05
2022-10-18T14:03:57.023Z,64.03
2022-10-18T14:06:33.597Z,62.98
2022-10-18T14:12:46.062Z,64.19
2022-10-18T14:15:28.622Z,60.99
2022-10-18T14:18:15.439Z,60.89
2022-10-18T14:21:12.242Z,57.30
2022-10-18T14:23:46.981Z,59.55
2022-10-18T14:26:19.663Z,63.07
2022-10-18T14:29:06.826Z,59.26
2022-10-18T14:31:35.088Z,61.99
2022-10-18T14:34:03.413Z,59.17
2022-10-18T14:36:41.462Z,57.84
2022-10-18T14:39:19.687Z,58.54
2022-10-18T14:41:53.719Z,58.13
2022-10-18T14:44:25.316Z,60.05
2022-10-18T14:47:16.591Z,59.74
2022-10-18T14:49:45.929Z,57.58
2022-10-18T14:52:24.059Z,60.53
2022-10-18T14:54:56.725Z,62.14
2022-10-18T14:57:31.221Z,61.29
2022-10-18T15:00:03.239Z,58.61
2022-10-18T15:02:35.662Z,59.79
2022-10-18T15:05:24.410Z,60.88
2022-10-18T15:07:53.155Z,61.25
2022-10-18T15:10:28.982Z,60.53
2022-10-18T15:13:09.895Z,62.24
2022-10-18T15:15:39.000Z,59.38
2022-10-18T15:18:08.320Z,60.35
2022-10-18T15:20:42.619Z,59.17
2022-10-18T15:23:31.274Z,58.94
2022-10-18T15:26:07.909Z,59.95
2022-10-18T15:28:53.706Z,61.03
2022-10-18T15:31:35.304Z,59.61
2022-10-18T15:34:17.982Z,61.07
2022-10-18T15:36:45.763Z,62.75
2022-10-18T15:39:22.978Z,63.42
2022-10-18T15:41:54.261Z,60.97
2022-10-18T15:44:50.989Z,61.12
2022-10-18T15:47:21.705Z,63.07
2022-10-18T15:49:54.570Z,64.29
2022-10-18T15:52:41.514Z,65.69
2022-10-18T15:55:29.978Z,66.50
2022-10-18T15:58:32.049Z,67.59
2022-10-18T16:01:04.326Z,68.46
2022-10-18T16:03:36.336Z,69.35
2022-10-18T16:06:07.702Z,69.63
2022-10-18T16:08:45.621Z,70.83
2022-10-18T16:11:25.522Z,71.37
2022-10-18T16:13:55.279Z,72.02
2022-10-18T16:16:28.251Z,73.14
2022-10-18T16:18:55.924Z,73.35
2022-10-18T16:21:33.891Z,74.33
2022-10-18T16:24:01.370Z,74.59
2022-10-18T16:26:28.675Z,75.50
2022-10-18T16:28:57.272Z,76.22
2022-10-18T16:31:28.934Z,76.75
2022-10-18T16:33:56.836Z,77.30
2022-10-18T16:36:33.483Z,78.23
2022-10-18T16:39:07.705Z,78.45
2022-10-18T16:41:34.441Z,79.28
2022-10-18T16:44:01.193Z,79.28
2022-10-18T16:46:32.627Z,79.88
2022-10-18T16:49:01.026Z,80.37
2022-10-18T16:51:28.121Z,80.97
2022-10-18T16:53:55.435Z,81.49
2022-10-18T16:56:27.751Z,82.03
2022-10-18T16:58:55.175Z,82.47
2022-10-18T17:01:24.101Z,82.85
2022-10-18T17:03:52.230Z,82.85
2022-10-18T17:06:30.546Z,83.62
2022-10-18T17:08:58.663Z,83.62
2022-10-18T17:11:29.684Z,84.23
2022-10-18T17:13:56.524Z,84.40
2022-10-18T17:19:04.830Z,85.08
2022-10-18T17:21:33.494Z,85.76
2022-10-18T17:24:05.907Z,86.31
2022-10-18T17:26:33.675Z,86.58
2022-10-18T17:29:06.515Z,87.15
2022-10-18T17:31:35.779Z,87.44
2022-10-18T17:34:03.075Z,87.99
2022-10-18T17:36:33.805Z,88.25
2022-10-18T17:39:00.614Z,88.66
2022-10-18T17:41:27.525Z,88.84
2022-10-18T17:43:54.309Z,88.94
2022-10-18T17:46:21.165Z,89.60
2022-10-18T17:48:48.013Z,89.98
2022-10-18T17:51:17.383Z,90.52
2022-10-18T17:53:44.871Z,90.92
2022-10-18T17:56:13.066Z,91.74
2022-10-18T17:58:43.138Z,92.54
2022-10-18T18:01:15.713Z,93.23
2022-10-18T18:03:43.045Z,94.46
2022-10-18T18:06:33.529Z,96.51
2022-10-18T18:09:07.441Z,97.40
2022-10-18T18:11:37.330Z,98.37
2022-10-18T18:14:09.730Z,99.01
2022-10-18T18:16:41.475Z,99.54
2022-10-18T18:19:10.266Z,100.00
2022-10-18T18:21:38.360Z,100.00
2022-10-18T18:24:05.545Z,100.00
2022-10-18T18:26:34.567Z,100.00
2022-10-18T18:31:36.979Z,100.00
2022-10-18T18:34:07.049Z,100.00
2022-10-18T18:36:33.866Z,100.00
2022-10-18T18:39:00.837Z,100.00
2022-10-18T18:41:28.999Z,100.00
2022-10-18T18:44:02.534Z,100.00
2022-10-18T18:46:34.236Z,100.00
2022-10-18T18:49:01.014Z,100.00
2022-10-18T18:51:28.073Z,100.00
2022-10-18T18:53:54.946Z,100.00
2022-10-18T18:56:25.298Z,100.00
2022-10-18T18:58:53.601Z,100.00
2022-10-18T19:01:27.255Z,100.00
2022-10-18T19:03:56.270Z,100.00
2022-10-18T19:06:39.425Z,100.00
2022-10-18T19:09:19.677Z,100.00
2022-10-18T19:11:49.491Z,100.00
2022-10-18T19:14:16.340Z,100.00
2022-10-18T19:16:53.896Z,100.00
2022-10-18T19:19:25.123Z,100.00
2022-10-18T19:22:01.706Z,100.00
2022-10-18T19:24:32.943Z,100.00
2022-10-18T19:27:09.648Z,100.00
2022-10-18T19:29:39.177Z,100.00
2022-10-18T19:32:12.072Z,100.00
2022-10-18T19:34:39.442Z,100.00
2022-10-18T19:37:06.184Z,100.00
2022-10-18T19:39:34.969Z,100.00
2022-10-18T19:42:06.944Z,100.00
2022-10-18T19:44:36.246Z,100.00
2022-10-18T19:47:10.013Z,100.00
2022-10-18T19:49:37.246Z,100.00
2022-10-18T19:52:04.672Z,100.00
2022-10-18T19:54:31.734Z,100.00
2022-10-18T19:56:58.455Z,100.00
2022-10-18T19:59:25.331Z,100.00
2022-10-18T20:01:52.521Z,100.00
2022-10-18T20:04:19.384Z,100.00
2022-10-18T20:06:46.410Z,100.00
2022-10-18T20:09:17.803Z,100.00
2022-10-18T20:11:47.336Z,100.00
2022-10-18T20:14:14.101Z,100.00
2022-10-18T20:16:41.185Z,100.00
2022-10-18T20:19:08.491Z,100.00
2022-10-18T20:21:36.409Z,100.00
2022-10-18T20:24:05.674Z,100.00
2022-10-18T20:26:33.650Z,100.00
2022-10-18T20:29:00.524Z,100.00
2022-10-18T20:31:38.311Z,100.00
2022-10-18T20:34:10.431Z,100.00
2022-10-18T20:36:37.945Z,100.00
2022-10-18T20:39:05.652Z,100.00
2022-10-18T20:41:36.802Z,100.00
2022-10-18T20:44:13.298Z,100.00
2022-10-18T20:46:40.873Z,100.00
2022-10-18T20:49:10.754Z,100.00
2022-10-18T20:51:37.505Z,100.00
2022-10-18T20:54:06.725Z,100.00
2022-10-18T20:56:36.497Z,100.00
2022-10-18T20:59:06.122Z,100.00
2022-10-18T21:01:35.580Z,100.00
2022-10-18T21:04:06.443Z,100.00
2022-10-18T21:06:37.652Z,100.00
2022-10-18T21:09:12.721Z,100.00
2022-10-18T21:11:42.735Z,100.00
2022-10-18T21:14:16.532Z,100.00
2022-10-18T21:16:44.158Z,100.00
2022-10-18T21:19:14.453Z,100.00
2022-10-18T21:21:44.468Z,100.00
2022-10-18T21:24:13.324Z,100.00
2022-10-18T21:26:40.749Z,100.00
2022-10-18T21:29:08.128Z,100.00
2022-10-18T21:31:39.224Z,100.00
2022-10-18T21:34:18.307Z,100.00
2022-10-18T21:36:48.122Z,100.00
2022-10-18T21:41:54.197Z,100.00
2022-10-18T21:44:21.108Z,100.00
2022-10-18T21:46:47.974Z,100.00
2022-10-18T21:49:16.112Z,100.00
2022-10-18T21:51:44.388Z,100.00
2022-10-18T21:54:16.091Z,100.00
2022-10-18T21:56:43.748Z,100.00
2022-10-18T21:59:12.654Z,100.00
2022-10-18T22:01:40.268Z,100.00
2022-10-18T22:04:18.277Z,100.00
2022-10-18T22:06:44.976Z,100.00
2022-10-18T22:09:11.841Z,100.00
2022-10-18T22:11:47.731Z,100.00
2022-10-18T22:14:14.566Z,100.00
2022-10-18T22:16:41.412Z,100.00
2022-10-18T22:19:08.671Z,100.00
2022-10-18T22:21:36.026Z,100.00
2022-10-18T22:24:08.680Z,100.00
2022-10-18T22:26:39.495Z,100.00
2022-10-18T22:29:11.919Z,100.00
2022-10-18T22:31:45.476Z,100.00
2022-10-18T22:34:17.050Z,100.00
2022-10-18T22:36:43.858Z,100.00
2022-10-18T22:39:14.316Z,100.00
2022-10-18T22:41:42.400Z,100.00
2022-10-18T22:44:14.685Z,100.00
2022-10-18T22:46:42.815Z,100.00
2022-10-18T22:49:11.580Z,100.00
2022-10-18T22:51:38.415Z,100.00
2022-10-18T22:54:05.236Z,100.00
2022-10-18T22:56:32.015Z,100.00
2022-10-18T22:58:58.768Z,100.00
2022-10-18T23:01:25.678Z,100.00
2022-10-18T23:03:54.445Z,100.00
2022-10-18T23:06:29.133Z,100.00
2022-10-18T23:08:58.513Z,100.00
2022-10-18T23:11:27.753Z,100.00
2022-10-18T23:13:54.958Z,100.00
2022-10-18T23:16:22.589Z,100.00
2022-10-18T23:18:56.096Z,100.00
2022-10-18T23:21:25.357Z,100.00
2022-10-18T23:23:53.912Z,100.00
2022-10-18T23:26:24.355Z,100.00
2022-10-18T23:28:53.721Z,100.00
2022-10-18T23:31:31.694Z,100.00
2022-10-18T23:34:02.501Z,100.00
2022-10-18T23:36:30.941Z,100.00
2022-10-18T23:38:58.323Z,100.00
2022-10-18T23:41:26.387Z,100.00
2022-10-18T23:43:53.351Z,100.00
2022-10-18T23:46:21.015Z,100.00
2022-10-18T23:48:48.463Z,100.00
2022-10-18T23:51:16.191Z,100.00
2022-10-18T23:53:43.354Z,100.00
2022-10-18T23:56:16.007Z,100.00
2022-10-18T23:58:44.592Z,100.00
